sensor_id;sensor_type;location;lat;lon;timestamp;P1;durP1;ratioP1;P2;durP2;ratioP2
4692;SDS011;11710;48.024;16.296;2022-12-07T00:00:53;5.65;;;3.33;;
4692;SDS011;11710;48.024;16.296;2022-12-07T00:03:20;3.90;;;3.53;;
4692;SDS011;11710;48.024;16.296;2022-12-07T00:05:47;5.05;;;3.88;;
4692;SDS011;11710;48.024;16.296;2022-12-07T00:08:14;5.03;;;3.95;;
4692;SDS011;11710;48.024;16.296;2022-12-07T00:10:41;5.95;;;4.47;;
4692;SDS011;11710;48.024;16.296;2022-12-07T00:13:08;4.65;;;3.90;;
4692;SDS011;11710;48.024;16.296;2022-12-07T00:15:37;6.15;;;4.68;;
4692;SDS011;11710;48.024;16.296;2022-12-07T00:18:04;4.75;;;4.20;;
4692;SDS011;11710;48.024;16.296;2022-12-07T00:20:31;8.25;;;4.57;;
4692;SDS011;11710;48.024;16.296;2022-12-07T00:22:58;4.95;;;3.75;;
4692;SDS011;11710;48.024;16.296;2022-12-07T00:25:26;5.30;;;4.53;;
4692;SDS011;11710;48.024;16.296;2022-12-07T00:27:53;6.20;;;4.30;;
4692;SDS011;11710;48.024;16.296;2022-12-07T00:30:22;5.03;;;3.97;;
4692;SDS011;11710;48.024;16.296;2022-12-07T00:32:51;4.53;;;4.13;;
4692;SDS011;11710;48.024;16.296;2022-12-07T00:35:18;6.38;;;4.60;;
4692;SDS011;11710;48.024;16.296;2022-12-07T06:03:30;13.05;;;8.93;;
4692;SDS011;11710;48.024;16.296;2022-12-07T06:05:57;16.02;;;10.18;;
4692;SDS011;11710;48.024;16.296;2022-12-07T06:08:25;14.95;;;9.05;;
4692;SDS011;11710;48.024;16.296;2022-12-07T06:10:52;13.93;;;9.00;;
4692;SDS011;11710;48.024;16.296;2022-12-07T06:13:39;13.93;;;9.30;;
4692;SDS011;11710;48.024;16.296;2022-12-07T06:16:05;15.20;;;9.32;;
4692;SDS011;11710;48.024;16.296;2022-12-07T06:18:35;15.50;;;9.82;;
4692;SDS011;11710;48.024;16.296;2022-12-07T06:21:02;13.25;;;8.95;;
4692;SDS011;11710;48.024;16.296;2022-12-07T06:23:32;11.65;;;8.35;;
4692;SDS011;11710;48.024;16.296;2022-12-07T06:25:59;13.77;;;8.70;;
4692;SDS011;11710;48.024;16.296;2022-12-07T06:28:26;12.07;;;8.10;;
4692;SDS011;11710;48.024;16.296;2022-12-07T06:30:56;15.35;;;9.10;;
4692;SDS011;11710;48.024;16.296;2022-12-07T06:33:24;16.58;;;9.30;;
4692;SDS011;11710;48.024;16.296;2022-12-07T06:35:53;15.88;;;11.82;;
4692;SDS011;11710;48.024;16.296;2022-12-07T06:38:20;16.88;;;12.27;;
4692;SDS011;11710;48.024;16.296;2022-12-07T06:40:47;15.70;;;11.88;;
4692;SDS011;11710;48.024;16.296;2022-12-07T06:43:15;14.68;;;11.48;;
4692;SDS011;11710;48.024;16.296;2022-12-07T06:45:42;22.83;;;15.23;;
4692;SDS011;11710;48.024;16.296;2022-12-07T06:48:09;21.75;;;13.93;;
4692;SDS011;11710;48.024;16.296;2022-12-07T06:50:36;18.25;;;12.55;;
4692;SDS011;11710;48.024;16.296;2022-12-07T06:53:05;20.10;;;12.85;;
4692;SDS011;11710;48.024;16.296;2022-12-07T06:55:32;22.13;;;11.68;;
4692;SDS011;11710;48.024;16.296;2022-12-07T06:57:59;15.57;;;9.13;;
4692;SDS011;11710;48.024;16.296;2022-12-07T07:00:26;15.48;;;9.95;;
4692;SDS011;11710;48.024;16.296;2022-12-07T07:02:53;12.18;;;8.93;;
4692;SDS011;11710;48.024;16.296;2022-12-07T07:05:21;15.25;;;8.93;;
4692;SDS011;11710;48.024;16.296;2022-12-07T07:07:48;11.05;;;7.97;;
4692;SDS011;11710;48.024;16.296;2022-12-07T07:10:18;9.90;;;7.15;;
4692;SDS011;11710;48.024;16.296;2022-12-07T07:12:45;8.85;;;7.28;;
4692;SDS011;11710;48.024;16.296;2022-12-07T07:15:12;9.57;;;5.60;;
4692;SDS011;11710;48.024;16.296;2022-12-07T07:17:39;8.20;;;5.70;;
4692;SDS011;11710;48.024;16.296;2022-12-07T07:20:07;9.07;;;5.75;;
4692;SDS011;11710;48.024;16.296;2022-12-07T07:22:34;8.45;;;5.70;;
4692;SDS011;11710;48.024;16.296;2022-12-07T07:25:02;10.55;;;5.90;;
4692;SDS011;11710;48.024;16.296;2022-12-07T07:27:31;7.82;;;5.90;;
4692;SDS011;11710;48.024;16.296;2022-12-07T07:29:58;8.80;;;5.90;;
4692;SDS011;11710;48.024;16.296;2022-12-07T07:32:25;8.32;;;6.25;;
4692;SDS011;11710;48.024;16.296;2022-12-07T07:34:53;9.63;;;6.47;;
4692;SDS011;11710;48.024;16.296;2022-12-07T07:37:20;10.30;;;6.25;;
4692;SDS011;11710;48.024;16.296;2022-12-07T07:39:48;8.93;;;6.70;;
4692;SDS011;11710;48.024;16.296;2022-12-07T07:42:18;8.23;;;6.25;;
4692;SDS011;11710;48.024;16.296;2022-12-07T07:44:47;11.63;;;6.90;;
4692;SDS011;11710;48.024;16.296;2022-12-07T07:47:14;9.10;;;7.40;;
4692;SDS011;11710;48.024;16.296;2022-12-07T07:49:41;10.77;;;7.60;;
4692;SDS011;11710;48.024;16.296;2022-12-07T07:52:09;11.15;;;7.60;;
4692;SDS011;11710;48.024;16.296;2022-12-07T07:54:36;10.40;;;7.35;;
4692;SDS011;11710;48.024;16.296;2022-12-07T07:57:04;10.68;;;6.97;;
4692;SDS011;11710;48.024;16.296;2022-12-07T07:59:31;9.75;;;7.28;;
4692;SDS011;11710;48.024;16.296;2022-12-07T08:01:59;8.80;;;7.10;;
4692;SDS011;11710;48.024;16.296;2022-12-07T08:04:26;10.18;;;6.35;;
4692;SDS011;11710;48.024;16.296;2022-12-07T08:06:53;7.40;;;5.85;;
4692;SDS011;11710;48.024;16.296;2022-12-07T08:09:21;7.65;;;6.10;;
4692;SDS011;11710;48.024;16.296;2022-12-07T08:11:48;7.47;;;5.60;;
4692;SDS011;11710;48.024;16.296;2022-12-07T08:14:15;7.38;;;5.03;;
4692;SDS011;11710;48.024;16.296;2022-12-07T08:16:42;8.90;;;6.80;;
4692;SDS011;11710;48.024;16.296;2022-12-07T08:19:10;7.43;;;6.63;;
4692;SDS011;11710;48.024;16.296;2022-12-07T08:21:37;12.02;;;7.45;;
4692;SDS011;11710;48.024;16.296;2022-12-07T08:24:05;8.05;;;5.25;;
4692;SDS011;11710;48.024;16.296;2022-12-07T08:26:32;8.80;;;6.47;;
4692;SDS011;11710;48.024;16.296;2022-12-07T08:29:00;6.75;;;5.45;;
4692;SDS011;11710;48.024;16.296;2022-12-07T08:31:28;6.78;;;5.50;;
4692;SDS011;11710;48.024;16.296;2022-12-07T08:33:55;7.35;;;6.15;;
4692;SDS011;11710;48.024;16.296;2022-12-07T08:36:24;9.15;;;5.40;;
4692;SDS011;11710;48.024;16.296;2022-12-07T08:38:52;6.90;;;5.45;;
4692;SDS011;11710;48.024;16.296;2022-12-07T08:41:19;6.07;;;4.72;;
4692;SDS011;11710;48.024;16.296;2022-12-07T08:43:46;7.05;;;4.70;;
4692;SDS011;11710;48.024;16.296;2022-12-07T08:46:16;5.80;;;4.82;;
4692;SDS011;11710;48.024;16.296;2022-12-07T08:48:46;5.63;;;4.75;;
4692;SDS011;11710;48.024;16.296;2022-12-07T08:51:19;6.05;;;4.90;;
4692;SDS011;11710;48.024;16.296;2022-12-07T08:53:49;6.25;;;4.93;;
4692;SDS011;11710;48.024;16.296;2022-12-07T08:56:18;4.80;;;4.18;;
4692;SDS011;11710;48.024;16.296;2022-12-07T08:58:46;5.50;;;4.80;;
4692;SDS011;11710;48.024;16.296;2022-12-07T09:01:14;6.50;;;4.78;;
4692;SDS011;11710;48.024;16.296;2022-12-07T09:03:41;6.55;;;4.63;;
4692;SDS011;11710;48.024;16.296;2022-12-07T09:06:08;7.40;;;5.90;;
4692;SDS011;11710;48.024;16.296;2022-12-07T09:08:36;7.55;;;5.40;;
4692;SDS011;11710;48.024;16.296;2022-12-07T09:11:08;8.68;;;6.00;;
4692;SDS011;11710;48.024;16.296;2022-12-07T09:13:35;10.70;;;6.10;;
4692;SDS011;11710;48.024;16.296;2022-12-07T09:16:02;6.15;;;4.68;;
4692;SDS011;11710;48.024;16.296;2022-12-07T09:18:30;8.60;;;5.00;;
4692;SDS011;11710;48.024;16.296;2022-12-07T09:20:57;6.03;;;5.30;;
4692;SDS011;11710;48.024;16.296;2022-12-07T09:23:25;7.18;;;5.90;;
4692;SDS011;11710;48.024;16.296;2022-12-07T09:25:52;7.15;;;6.20;;
4692;SDS011;11710;48.024;16.296;2022-12-07T09:28:20;7.38;;;5.60;;
4692;SDS011;11710;48.024;16.296;2022-12-07T09:30:48;5.90;;;4.88;;
4692;SDS011;11710;48.024;16.296;2022-12-07T09:33:15;5.78;;;4.50;;
4692;SDS011;11710;48.024;16.296;2022-12-07T09:35:45;8.95;;;5.15;;
4692;SDS011;11710;48.024;16.296;2022-12-07T09:38:13;6.93;;;5.20;;
4692;SDS011;11710;48.024;16.296;2022-12-07T09:40:40;6.13;;;5.03;;
4692;SDS011;11710;48.024;16.296;2022-12-07T09:43:11;7.32;;;5.63;;
4692;SDS011;11710;48.024;16.296;2022-12-07T09:45:43;7.63;;;5.07;;
4692;SDS011;11710;48.024;16.296;2022-12-07T09:48:14;8.98;;;5.65;;
4692;SDS011;11710;48.024;16.296;2022-12-07T09:50:44;5.43;;;4.55;;
4692;SDS011;11710;48.024;16.296;2022-12-07T09:53:14;6.18;;;4.65;;
4692;SDS011;11710;48.024;16.296;2022-12-07T09:55:46;7.03;;;5.45;;
4692;SDS011;11710;48.024;16.296;2022-12-07T09:58:16;6.20;;;5.00;;
4692;SDS011;11710;48.024;16.296;2022-12-07T10:00:49;5.53;;;4.25;;
4692;SDS011;11710;48.024;16.296;2022-12-07T10:03:20;5.25;;;4.60;;
4692;SDS011;11710;48.024;16.296;2022-12-07T10:05:47;4.85;;;4.28;;
4692;SDS011;11710;48.024;16.296;2022-12-07T10:08:17;4.90;;;4.28;;
4692;SDS011;11710;48.024;16.296;2022-12-07T10:10:45;4.43;;;3.67;;
4692;SDS011;11710;48.024;16.296;2022-12-07T10:13:16;4.90;;;4.40;;
4692;SDS011;11710;48.024;16.296;2022-12-07T10:15:48;5.60;;;4.75;;
4692;SDS011;11710;48.024;16.296;2022-12-07T10:18:19;4.95;;;4.45;;
4692;SDS011;11710;48.024;16.296;2022-12-07T10:20:59;4.57;;;3.80;;
4692;SDS011;11710;48.024;16.296;2022-12-07T10:23:28;3.80;;;3.50;;
4692;SDS011;11710;48.024;16.296;2022-12-07T10:25:56;4.40;;;3.95;;
4692;SDS011;11710;48.024;16.296;2022-12-07T10:28:27;4.40;;;3.90;;
4692;SDS011;11710;48.024;16.296;2022-12-07T10:31:15;3.90;;;3.47;;
4692;SDS011;11710;48.024;16.296;2022-12-07T10:33:48;3.57;;;3.27;;
4692;SDS011;11710;48.024;16.296;2022-12-07T10:36:18;6.53;;;4.50;;
4692;SDS011;11710;48.024;16.296;2022-12-07T10:38:48;4.93;;;4.43;;
4692;SDS011;11710;48.024;16.296;2022-12-07T10:41:17;3.60;;;3.30;;
4692;SDS011;11710;48.024;16.296;2022-12-07T10:43:52;4.20;;;3.80;;
4692;SDS011;11710;48.024;16.296;2022-12-07T10:46:39;4.00;;;3.40;;
4692;SDS011;11710;48.024;16.296;2022-12-07T10:49:25;4.20;;;3.80;;
4692;SDS011;11710;48.024;16.296;2022-12-07T10:52:23;5.93;;;4.20;;
4692;SDS011;11710;48.024;16.296;2022-12-07T10:55:08;4.38;;;3.40;;
4692;SDS011;11710;48.024;16.296;2022-12-07T10:57:47;4.40;;;3.95;;
4692;SDS011;11710;48.024;16.296;2022-12-07T11:00:34;5.45;;;4.00;;
4692;SDS011;11710;48.024;16.296;2022-12-07T11:06:04;4.20;;;3.80;;
4692;SDS011;11710;48.024;16.296;2022-12-07T11:08:43;6.32;;;5.00;;
4692;SDS011;11710;48.024;16.296;2022-12-07T11:11:19;8.25;;;4.95;;
4692;SDS011;11710;48.024;16.296;2022-12-07T11:13:56;5.97;;;4.90;;
4692;SDS011;11710;48.024;16.296;2022-12-07T11:16:31;6.72;;;4.95;;
4692;SDS011;11710;48.024;16.296;2022-12-07T11:19:19;5.95;;;4.78;;
4692;SDS011;11710;48.024;16.296;2022-12-07T11:21:59;7.60;;;4.72;;
4692;SDS011;11710;48.024;16.296;2022-12-07T11:24:32;6.57;;;4.80;;
4692;SDS011;11710;48.024;16.296;2022-12-07T11:27:10;6.20;;;4.68;;
4692;SDS011;11710;48.024;16.296;2022-12-07T11:29:48;6.05;;;4.75;;
4692;SDS011;11710;48.024;16.296;2022-12-07T11:32:43;7.40;;;5.15;;
4692;SDS011;11710;48.024;16.296;2022-12-07T11:35:19;5.65;;;4.93;;
4692;SDS011;11710;48.024;16.296;2022-12-07T11:37:57;5.18;;;4.50;;
4692;SDS011;11710;48.024;16.296;2022-12-07T11:40:29;5.70;;;4.70;;
4692;SDS011;11710;48.024;16.296;2022-12-07T11:43:01;5.85;;;4.70;;
4692;SDS011;11710;48.024;16.296;2022-12-07T11:45:33;7.63;;;4.60;;
4692;SDS011;11710;48.024;16.296;2022-12-07T11:48:04;6.80;;;4.95;;
4692;SDS011;11710;48.024;16.296;2022-12-07T11:50:42;7.03;;;5.07;;
4692;SDS011;11710;48.024;16.296;2022-12-07T11:53:14;6.68;;;4.72;;
4692;SDS011;11710;48.024;16.296;2022-12-07T11:55:47;5.97;;;5.10;;
4692;SDS011;11710;48.024;16.296;2022-12-07T11:58:40;6.32;;;4.45;;
4692;SDS011;11710;48.024;16.296;2022-12-07T12:01:14;7.38;;;5.10;;
4692;SDS011;11710;48.024;16.296;2022-12-07T12:03:53;5.28;;;4.60;;
4692;SDS011;11710;48.024;16.296;2022-12-07T12:06:28;6.78;;;5.25;;
4692;SDS011;11710;48.024;16.296;2022-12-07T12:08:57;7.25;;;4.75;;
4692;SDS011;11710;48.024;16.296;2022-12-07T12:11:34;6.00;;;4.80;;
4692;SDS011;11710;48.024;16.296;2022-12-07T12:14:29;6.97;;;4.95;;
4692;SDS011;11710;48.024;16.296;2022-12-07T12:17:20;6.63;;;5.40;;
4692;SDS011;11710;48.024;16.296;2022-12-07T12:20:21;8.48;;;5.65;;
4692;SDS011;11710;48.024;16.296;2022-12-07T12:22:55;6.40;;;4.93;;
4692;SDS011;11710;48.024;16.296;2022-12-07T12:25:28;6.97;;;5.30;;
4692;SDS011;11710;48.024;16.296;2022-12-07T12:27:58;7.97;;;6.30;;
4692;SDS011;11710;48.024;16.296;2022-12-07T12:30:31;9.23;;;6.20;;
4692;SDS011;11710;48.024;16.296;2022-12-07T12:33:01;8.68;;;6.65;;
4692;SDS011;11710;48.024;16.296;2022-12-07T12:35:32;5.28;;;4.78;;
4692;SDS011;11710;48.024;16.296;2022-12-07T12:38:25;8.10;;;5.90;;
4692;SDS011;11710;48.024;16.296;2022-12-07T12:40:55;8.02;;;5.35;;
4692;SDS011;11710;48.024;16.296;2022-12-07T12:58:33;12.82;;;6.75;;
4692;SDS011;11710;48.024;16.296;2022-12-07T13:04:18;6.25;;;5.00;;
4692;SDS011;11710;48.024;16.296;2022-12-07T13:06:53;4.43;;;4.03;;
4692;SDS011;11710;48.024;16.296;2022-12-07T13:09:21;5.22;;;4.50;;
4692;SDS011;11710;48.024;16.296;2022-12-07T13:11:57;6.18;;;5.30;;
4692;SDS011;11710;48.024;16.296;2022-12-07T13:23:31;9.65;;;7.03;;
4692;SDS011;11710;48.024;16.296;2022-12-07T13:26:09;6.70;;;5.07;;
4692;SDS011;11710;48.024;16.296;2022-12-07T13:28:43;8.20;;;6.15;;
4692;SDS011;11710;48.024;16.296;2022-12-07T13:34:00;6.70;;;5.35;;
4692;SDS011;11710;48.024;16.296;2022-12-07T13:36:29;7.63;;;6.22;;
4692;SDS011;11710;48.024;16.296;2022-12-07T13:39:10;9.07;;;6.28;;
4692;SDS011;11710;48.024;16.296;2022-12-07T13:41:44;7.60;;;4.97;;
4692;SDS011;11710;48.024;16.296;2022-12-07T13:44:17;7.03;;;5.13;;
4692;SDS011;11710;48.024;16.296;2022-12-07T13:46:48;7.95;;;5.60;;
4692;SDS011;11710;48.024;16.296;2022-12-07T13:49:24;5.75;;;4.55;;
4692;SDS011;11710;48.024;16.296;2022-12-07T13:51:54;7.35;;;5.40;;
4692;SDS011;11710;48.024;16.296;2022-12-07T13:54:33;5.10;;;4.60;;
4692;SDS011;11710;48.024;16.296;2022-12-07T13:57:11;7.20;;;5.60;;
4692;SDS011;11710;48.024;16.296;2022-12-07T13:59:40;11.00;;;7.28;;
4692;SDS011;11710;48.024;16.296;2022-12-07T14:02:16;11.25;;;6.32;;
4692;SDS011;11710;48.024;16.296;2022-12-07T14:04:46;8.05;;;5.40;;
4692;SDS011;11710;48.024;16.296;2022-12-07T14:07:23;6.53;;;5.40;;
4692;SDS011;11710;48.024;16.296;2022-12-07T14:09:55;9.43;;;5.85;;
4692;SDS011;11710;48.024;16.296;2022-12-07T14:12:24;9.32;;;6.15;;
4692;SDS011;11710;48.024;16.296;2022-12-07T14:14:54;7.47;;;5.72;;
4692;SDS011;11710;48.024;16.296;2022-12-07T14:17:23;6.70;;;5.45;;
4692;SDS011;11710;48.024;16.296;2022-12-07T14:19:51;10.43;;;6.03;;
4692;SDS011;11710;48.024;16.296;2022-12-07T14:22:27;7.95;;;5.75;;
4692;SDS011;11710;48.024;16.296;2022-12-07T14:25:01;7.28;;;5.10;;
4692;SDS011;11710;48.024;16.296;2022-12-07T14:27:50;8.98;;;6.13;;
4692;SDS011;11710;48.024;16.296;2022-12-07T14:30:23;6.47;;;5.20;;
4692;SDS011;11710;48.024;16.296;2022-12-07T14:32:52;6.38;;;4.70;;
4692;SDS011;11710;48.024;16.296;2022-12-07T14:35:21;5.55;;;4.18;;
4692;SDS011;11710;48.024;16.296;2022-12-07T14:37:48;5.82;;;4.72;;
4692;SDS011;11710;48.024;16.296;2022-12-07T14:40:17;7.35;;;5.75;;
4692;SDS011;11710;48.024;16.296;2022-12-07T14:42:47;6.43;;;4.88;;
4692;SDS011;11710;48.024;16.296;2022-12-07T14:45:20;6.25;;;4.75;;
4692;SDS011;11710;48.024;16.296;2022-12-07T14:47:49;6.85;;;5.40;;
4692;SDS011;11710;48.024;16.296;2022-12-07T14:50:17;6.75;;;5.32;;
4692;SDS011;11710;48.024;16.296;2022-12-07T14:52:46;6.40;;;4.85;;
4692;SDS011;11710;48.024;16.296;2022-12-07T14:55:18;6.47;;;5.25;;
4692;SDS011;11710;48.024;16.296;2022-12-07T14:57:49;7.50;;;5.50;;
4692;SDS011;11710;48.024;16.296;2022-12-07T15:00:17;7.65;;;5.70;;
4692;SDS011;11710;48.024;16.296;2022-12-07T15:02:47;8.63;;;5.47;;
4692;SDS011;11710;48.024;16.296;2022-12-07T15:05:16;8.18;;;6.47;;
4692;SDS011;11710;48.024;16.296;2022-12-07T15:07:43;13.02;;;8.52;;
4692;SDS011;11710;48.024;16.296;2022-12-07T15:10:13;8.00;;;5.68;;
4692;SDS011;11710;48.024;16.296;2022-12-07T15:12:43;7.93;;;5.80;;
4692;SDS011;11710;48.024;16.296;2022-12-07T15:15:11;8.82;;;6.07;;
4692;SDS011;11710;48.024;16.296;2022-12-07T15:17:38;6.80;;;6.05;;
4692;SDS011;11710;48.024;16.296;2022-12-07T15:20:09;8.80;;;5.50;;
4692;SDS011;11710;48.024;16.296;2022-12-07T15:22:38;9.35;;;7.53;;
4692;SDS011;11710;48.024;16.296;2022-12-07T15:25:05;9.15;;;6.07;;
4692;SDS011;11710;48.024;16.296;2022-12-07T15:27:33;10.52;;;6.60;;
4692;SDS011;11710;48.024;16.296;2022-12-07T15:30:00;8.43;;;5.82;;
4692;SDS011;11710;48.024;16.296;2022-12-07T15:32:28;8.20;;;6.30;;
4692;SDS011;11710;48.024;16.296;2022-12-07T15:34:55;9.40;;;6.10;;
4692;SDS011;11710;48.024;16.296;2022-12-07T15:37:23;8.98;;;6.35;;
4692;SDS011;11710;48.024;16.296;2022-12-07T15:39:50;10.07;;;7.00;;
4692;SDS011;11710;48.024;16.296;2022-12-07T15:42:17;7.75;;;5.70;;
4692;SDS011;11710;48.024;16.296;2022-12-07T15:44:44;8.45;;;6.13;;
4692;SDS011;11710;48.024;16.296;2022-12-07T15:47:28;11.23;;;7.63;;
4692;SDS011;11710;48.024;16.296;2022-12-07T15:49:56;8.30;;;6.05;;
4692;SDS011;11710;48.024;16.296;2022-12-07T15:52:24;8.98;;;6.72;;
4692;SDS011;11710;48.024;16.296;2022-12-07T15:54:51;10.63;;;8.65;;
4692;SDS011;11710;48.024;16.296;2022-12-07T15:57:19;13.20;;;9.98;;
4692;SDS011;11710;48.024;16.296;2022-12-07T15:59:46;11.68;;;7.68;;
4692;SDS011;11710;48.024;16.296;2022-12-07T16:02:13;12.07;;;8.13;;
4692;SDS011;11710;48.024;16.296;2022-12-07T16:04:41;14.80;;;9.88;;
4692;SDS011;11710;48.024;16.296;2022-12-07T16:07:08;12.82;;;9.00;;
4692;SDS011;11710;48.024;16.296;2022-12-07T16:09:37;18.77;;;13.27;;
4692;SDS011;11710;48.024;16.296;2022-12-07T16:12:05;16.55;;;13.63;;
4692;SDS011;11710;48.024;16.296;2022-12-07T16:14:33;12.95;;;11.02;;
4692;SDS011;11710;48.024;16.296;2022-12-07T16:17:00;9.20;;;8.00;;
4692;SDS011;11710;48.024;16.296;2022-12-07T16:19:29;10.65;;;7.18;;
4692;SDS011;11710;48.024;16.296;2022-12-07T16:21:56;12.40;;;8.20;;
4692;SDS011;11710;48.024;16.296;2022-12-07T16:24:24;11.10;;;7.78;;
4692;SDS011;11710;48.024;16.296;2022-12-07T16:26:53;9.55;;;7.00;;
4692;SDS011;11710;48.024;16.296;2022-12-07T16:29:20;11.50;;;7.50;;
4692;SDS011;11710;48.024;16.296;2022-12-07T16:31:49;12.68;;;8.27;;
4692;SDS011;11710;48.024;16.296;2022-12-07T16:34:18;14.20;;;9.05;;
4692;SDS011;11710;48.024;16.296;2022-12-07T16:36:45;14.55;;;9.45;;
4692;SDS011;11710;48.024;16.296;2022-12-07T16:39:12;12.13;;;8.52;;
4692;SDS011;11710;48.024;16.296;2022-12-07T16:41:39;16.83;;;9.95;;
4692;SDS011;11710;48.024;16.296;2022-12-07T16:44:09;16.13;;;10.20;;
4692;SDS011;11710;48.024;16.296;2022-12-07T16:46:38;17.75;;;11.40;;
4692;SDS011;11710;48.024;16.296;2022-12-07T16:49:06;15.05;;;10.88;;
4692;SDS011;11710;48.024;16.296;2022-12-07T16:51:33;15.73;;;10.63;;
4692;SDS011;11710;48.024;16.296;2022-12-07T16:54:02;28.25;;;13.27;;
4692;SDS011;11710;48.024;16.296;2022-12-07T16:56:29;17.08;;;11.40;;
4692;SDS011;11710;48.024;16.296;2022-12-07T16:58:57;18.45;;;11.55;;
4692;SDS011;11710;48.024;16.296;2022-12-07T17:01:26;20.60;;;13.30;;
4692;SDS011;11710;48.024;16.296;2022-12-07T17:03:54;17.40;;;11.15;;
4692;SDS011;11710;48.024;16.296;2022-12-07T17:06:23;13.30;;;9.10;;
4692;SDS011;11710;48.024;16.296;2022-12-07T17:08:51;10.48;;;7.70;;
4692;SDS011;11710;48.024;16.296;2022-12-07T17:11:19;11.65;;;8.45;;
4692;SDS011;11710;48.024;16.296;2022-12-07T17:13:48;16.10;;;10.27;;
4692;SDS011;11710;48.024;16.296;2022-12-07T17:16:34;15.82;;;10.88;;
4692;SDS011;11710;48.024;16.296;2022-12-07T17:19:03;12.23;;;7.65;;
4692;SDS011;11710;48.024;16.296;2022-12-07T17:21:30;15.43;;;10.60;;
4692;SDS011;11710;48.024;16.296;2022-12-07T17:23:58;9.90;;;8.05;;
4692;SDS011;11710;48.024;16.296;2022-12-07T17:26:27;10.88;;;8.30;;
4692;SDS011;11710;48.024;16.296;2022-12-07T17:28:55;10.90;;;8.02;;
4692;SDS011;11710;48.024;16.296;2022-12-07T17:31:23;13.50;;;8.55;;
4692;SDS011;11710;48.024;16.296;2022-12-07T17:33:52;12.55;;;7.63;;
4692;SDS011;11710;48.024;16.296;2022-12-07T17:36:20;14.27;;;8.77;;
4692;SDS011;11710;48.024;16.296;2022-12-07T17:38:48;14.13;;;8.90;;
4692;SDS011;11710;48.024;16.296;2022-12-07T17:41:17;18.70;;;9.98;;
4692;SDS011;11710;48.024;16.296;2022-12-07T17:43:59;12.57;;;8.45;;
4692;SDS011;11710;48.024;16.296;2022-12-07T17:46:27;10.35;;;7.45;;
4692;SDS011;11710;48.024;16.296;2022-12-07T17:48:56;11.55;;;7.45;;
4692;SDS011;11710;48.024;16.296;2022-12-07T17:51:25;10.85;;;7.25;;
4692;SDS011;11710;48.024;16.296;2022-12-07T17:54:10;8.35;;;6.53;;
4692;SDS011;11710;48.024;16.296;2022-12-07T17:56:38;8.70;;;6.38;;
4692;SDS011;11710;48.024;16.296;2022-12-07T17:59:05;9.85;;;6.88;;
4692;SDS011;11710;48.024;16.296;2022-12-07T18:01:33;9.57;;;6.15;;
4692;SDS011;11710;48.024;16.296;2022-12-07T18:04:03;11.00;;;7.32;;
4692;SDS011;11710;48.024;16.296;2022-12-07T18:06:31;13.23;;;8.25;;
4692;SDS011;11710;48.024;16.296;2022-12-07T18:08:59;13.85;;;8.80;;
4692;SDS011;11710;48.024;16.296;2022-12-07T18:11:26;13.13;;;9.35;;
4692;SDS011;11710;48.024;16.296;2022-12-07T18:13:53;10.38;;;8.60;;
4692;SDS011;11710;48.024;16.296;2022-12-07T18:16:21;13.27;;;9.70;;
4692;SDS011;11710;48.024;16.296;2022-12-07T18:18:51;12.63;;;8.90;;
4692;SDS011;11710;48.024;16.296;2022-12-07T18:21:21;11.30;;;8.45;;
4692;SDS011;11710;48.024;16.296;2022-12-07T18:23:50;11.25;;;7.40;;
4692;SDS011;11710;48.024;16.296;2022-12-07T18:26:19;10.15;;;7.30;;
4692;SDS011;11710;48.024;16.296;2022-12-07T18:28:48;13.43;;;8.68;;
4692;SDS011;11710;48.024;16.296;2022-12-07T18:31:16;17.02;;;11.82;;
4692;SDS011;11710;48.024;16.296;2022-12-07T18:33:44;24.70;;;14.40;;
4692;SDS011;11710;48.024;16.296;2022-12-07T18:36:13;23.40;;;13.77;;
4692;SDS011;11710;48.024;16.296;2022-12-07T18:38:42;26.45;;;17.02;;
4692;SDS011;11710;48.024;16.296;2022-12-07T18:41:11;29.02;;;17.45;;
4692;SDS011;11710;48.024;16.296;2022-12-07T18:43:40;31.52;;;19.70;;
4692;SDS011;11710;48.024;16.296;2022-12-07T18:46:09;43.22;;;25.75;;
4692;SDS011;11710;48.024;16.296;2022-12-07T18:48:37;67.65;;;43.70;;
4692;SDS011;11710;48.024;16.296;2022-12-07T18:51:05;41.90;;;28.42;;
4692;SDS011;11710;48.024;16.296;2022-12-07T18:53:33;36.85;;;25.20;;
4692;SDS011;11710;48.024;16.296;2022-12-07T18:56:03;24.35;;;18.95;;
4692;SDS011;11710;48.024;16.296;2022-12-07T18:58:32;18.25;;;13.13;;
4692;SDS011;11710;48.024;16.296;2022-12-07T19:00:59;20.67;;;13.30;;
4692;SDS011;11710;48.024;16.296;2022-12-07T19:03:26;18.65;;;12.30;;
4692;SDS011;11710;48.024;16.296;2022-12-07T19:05:57;18.20;;;12.18;;
4692;SDS011;11710;48.024;16.296;2022-12-07T19:08:24;19.63;;;12.07;;
4692;SDS011;11710;48.024;16.296;2022-12-07T19:10:52;21.85;;;13.25;;
4692;SDS011;11710;48.024;16.296;2022-12-07T19:13:20;18.02;;;11.00;;
4692;SDS011;11710;48.024;16.296;2022-12-07T19:15:47;20.40;;;11.75;;
4692;SDS011;11710;48.024;16.296;2022-12-07T19:18:14;19.42;;;13.23;;
4692;SDS011;11710;48.024;16.296;2022-12-07T19:20:41;21.90;;;14.27;;
4692;SDS011;11710;48.024;16.296;2022-12-07T19:23:08;25.70;;;16.50;;
4692;SDS011;11710;48.024;16.296;2022-12-07T19:25:35;25.90;;;16.13;;
4692;SDS011;11710;48.024;16.296;2022-12-07T19:28:05;34.65;;;19.20;;
4692;SDS011;11710;48.024;16.296;2022-12-07T19:30:34;31.58;;;19.38;;
4692;SDS011;11710;48.024;16.296;2022-12-07T19:33:03;33.20;;;19.15;;
4692;SDS011;11710;48.024;16.296;2022-12-07T19:35:30;23.65;;;14.48;;
4692;SDS011;11710;48.024;16.296;2022-12-07T19:37:57;21.35;;;14.00;;
4692;SDS011;11710;48.024;16.296;2022-12-07T19:40:24;26.75;;;15.93;;
4692;SDS011;11710;48.024;16.296;2022-12-07T19:42:51;19.13;;;13.45;;
4692;SDS011;11710;48.024;16.296;2022-12-07T19:45:18;23.75;;;14.48;;
4692;SDS011;11710;48.024;16.296;2022-12-07T19:47:46;25.83;;;16.02;;
4692;SDS011;11710;48.024;16.296;2022-12-07T19:50:13;29.10;;;17.08;;
4692;SDS011;11710;48.024;16.296;2022-12-07T19:52:40;23.38;;;14.57;;
4692;SDS011;11710;48.024;16.296;2022-12-07T19:55:07;25.33;;;16.50;;
4692;SDS011;11710;48.024;16.296;2022-12-07T19:57:34;24.70;;;15.48;;
4692;SDS011;11710;48.024;16.296;2022-12-07T20:00:02;23.38;;;15.13;;
4692;SDS011;11710;48.024;16.296;2022-12-07T20:02:30;21.08;;;12.45;;
4692;SDS011;11710;48.024;16.296;2022-12-07T20:04:59;19.85;;;13.65;;
4692;SDS011;11710;48.024;16.296;2022-12-07T20:07:26;29.02;;;16.75;;
4692;SDS011;11710;48.024;16.296;2022-12-07T20:09:53;22.67;;;15.13;;
4692;SDS011;11710;48.024;16.296;2022-12-07T20:12:20;42.53;;;22.15;;
4692;SDS011;11710;48.024;16.296;2022-12-07T20:15:05;30.00;;;17.88;;
4692;SDS011;11710;48.024;16.296;2022-12-07T20:17:33;20.80;;;13.52;;
4692;SDS011;11710;48.024;16.296;2022-12-07T20:20:02;26.10;;;15.02;;
4692;SDS011;11710;48.024;16.296;2022-12-07T20:22:30;22.17;;;14.38;;
4692;SDS011;11710;48.024;16.296;2022-12-07T20:24:57;27.42;;;15.32;;
4692;SDS011;11710;48.024;16.296;2022-12-07T20:27:24;20.05;;;12.48;;
4692;SDS011;11710;48.024;16.296;2022-12-07T20:29:51;15.32;;;10.15;;
4692;SDS011;11710;48.024;16.296;2022-12-07T20:32:18;12.60;;;9.65;;
4692;SDS011;11710;48.024;16.296;2022-12-07T20:34:45;12.20;;;9.00;;
4692;SDS011;11710;48.024;16.296;2022-12-07T20:37:14;11.38;;;8.70;;
4692;SDS011;11710;48.024;16.296;2022-12-07T20:39:42;12.55;;;9.63;;
4692;SDS011;11710;48.024;16.296;2022-12-07T20:42:09;9.90;;;8.13;;
4692;SDS011;11710;48.024;16.296;2022-12-07T20:44:54;14.77;;;9.98;;
4692;SDS011;11710;48.024;16.296;2022-12-07T20:47:21;12.30;;;9.00;;
4692;SDS011;11710;48.024;16.296;2022-12-07T20:49:50;11.50;;;8.80;;
4692;SDS011;11710;48.024;16.296;2022-12-07T20:52:18;10.90;;;7.90;;
4692;SDS011;11710;48.024;16.296;2022-12-07T20:54:46;11.88;;;8.15;;
